Time;durP1;ratioP1;P1;durP2;ratioP2;P2;SDS_P1;SDS_P2;PMS_P1;PMS_P2;Temp;Humidity;BMP_temperature;BMP_pressure;BME280_temperature;BME280_humidity;BME280_pressure;Samples;Min_cycle;Max_cycle;Signal;HPM_P1;HPM_P2
2022/08/28 00:05:03;;;;;;;2.58;0.70;;;14.70;99.90;;;;;;20764995;28;20930;-82
2022/08/28 00:15:08;;;;;;;7.65;1.23;;;14.70;99.90;;;;;;20778053;28;20083;-81
2022/08/28 00:25:12;;;;;;;1.73;0.90;;;14.70;99.90;;;;;;20748739;28;20041;-82
2022/08/28 00:35:16;;;;;;;1.45;0.50;;;14.60;99.90;;;;;;20762495;28;20045;-81
2022/08/28 00:45:19;;;;;;;1.17;0.50;;;14.50;99.90;;;;;;20795164;28;20216;-81
2022/08/28 00:55:24;;;;;;;4.43;1.42;;;14.40;99.90;;;;;;20769801;28;20040;-82
2022/08/28 01:05:27;;;;;;;2.28;0.60;;;14.40;99.90;;;;;;20765001;28;20030;-80
2022/08/28 01:15:32;;;;;;;1.25;0.65;;;14.20;99.90;;;;;;20760284;28;20093;-81
2022/08/28 01:25:35;;;;;;;7.05;1.48;;;14.10;99.90;;;;;;20773076;28;20099;-81
2022/08/28 01:35:39;;;;;;;2.22;0.65;;;14.00;99.90;;;;;;20740116;28;20042;-81
2022/08/28 01:45:44;;;;;;;1.30;0.40;;;13.90;99.90;;;;;;20665608;28;20077;-81
2022/08/28 01:55:45;;;;;;;1.73;0.63;;;13.80;99.90;;;;;;20702637;28;20038;-82
2022/08/28 02:05:46;;;;;;;3.53;0.65;;;13.80;99.90;;;;;;20678810;28;20044;-81
2022/08/28 02:15:47;;;;;;;2.15;0.60;;;13.70;99.90;;;;;;20716736;28;20038;-81
2022/08/28 02:25:48;;;;;;;2.97;0.45;;;13.60;99.90;;;;;;20680894;28;20045;-81
2022/08/28 02:35:50;;;;;;;2.35;0.85;;;13.50;99.90;;;;;;21449903;23;20094;-80
2022/08/28 02:45:51;;;;;;;1.88;1.05;;;13.50;99.90;;;;;;20958248;28;20049;-80
2022/08/28 02:55:52;;;;;;;3.33;1.35;;;13.40;99.90;;;;;;20947310;28;20761;-80
2022/08/28 03:05:54;;;;;;;1.20;0.47;;;13.40;99.90;;;;;;20978461;28;20040;-80
2022/08/28 03:15:56;;;;;;;1.27;0.40;;;13.30;99.90;;;;;;20938735;28;20082;-81
2022/08/28 03:26:07;;;;;;;1.58;0.35;;;13.20;99.90;;;;;;20955362;28;20029;-82
2022/08/28 03:36:10;;;;;;;1.50;0.30;;;13.20;99.90;;;;;;20939074;28;20477;-82
2022/08/28 03:46:17;;;;;;;1.30;0.50;;;13.10;99.90;;;;;;20914208;28;20036;-81
2022/08/28 03:56:22;;;;;;;2.00;1.30;;;13.10;99.90;;;;;;20905782;28;20087;-81
2022/08/28 04:06:23;;;;;;;1.25;0.73;;;13.10;99.90;;;;;;20943083;28;20075;-81
2022/08/28 04:16:24;;;;;;;0.98;0.45;;;13.00;99.90;;;;;;20948571;28;20040;-82
2022/08/28 04:26:26;;;;;;;2.05;0.55;;;12.90;99.90;;;;;;20934489;28;20048;-81
2022/08/28 04:36:28;;;;;;;1.25;0.60;;;12.90;99.90;;;;;;20924262;28;20040;-82
2022/08/28 04:46:29;;;;;;;2.60;0.68;;;12.90;99.90;;;;;;20933973;28;20488;-82
2022/08/28 04:56:30;;;;;;;1.13;0.60;;;12.90;99.90;;;;;;20939048;28;20040;-82
2022/08/28 05:06:32;;;;;;;0.85;0.40;;;12.80;99.90;;;;;;20919458;28;20062;-82
2022/08/28 05:16:43;;;;;;;1.92;0.73;;;12.80;99.90;;;;;;20940451;28;20091;-83
2022/08/28 05:26:45;;;;;;;3.05;1.25;;;12.90;99.90;;;;;;20945846;28;20090;-83
2022/08/28 05:36:46;;;;;;;0.90;0.32;;;12.90;99.90;;;;;;20931029;28;20048;-83
2022/08/28 05:46:47;;;;;;;1.98;0.90;;;13.00;99.90;;;;;;20924035;28;20832;-82
2022/08/28 05:56:48;;;;;;;1.17;0.43;;;13.10;99.90;;;;;;20936288;28;20044;-82
2022/08/28 06:06:49;;;;;;;1.65;0.50;;;13.30;99.90;;;;;;20955662;28;20118;-83
2022/08/28 06:16:53;;;;;;;3.33;0.50;;;13.50;99.90;;;;;;20948837;28;20032;-82
2022/08/28 06:26:54;;;;;;;1.60;0.43;;;13.80;99.90;;;;;;20953829;28;20483;-82
2022/08/28 06:36:56;;;;;;;1.30;0.60;;;14.00;99.90;;;;;;20972268;28;20094;-82
2022/08/28 06:46:59;;;;;;;1.02;0.38;;;14.40;99.90;;;;;;20952993;28;20044;-82
2022/08/28 06:57:00;;;;;;;3.38;1.23;;;14.50;99.90;;;;;;20954744;28;20086;-81
2022/08/28 07:07:01;;;;;;;1.70;0.75;;;14.80;99.90;;;;;;20967456;28;20487;-83
2022/08/28 07:17:02;;;;;;;0.68;0.30;;;15.30;99.90;;;;;;20963040;28;20033;-81
2022/08/28 07:27:04;;;;;;;0.93;0.40;;;16.20;99.90;;;;;;20995713;28;20095;-82
2022/08/28 07:37:06;;;;;;;2.03;0.35;;;16.70;99.90;;;;;;20968474;28;20044;-81
2022/08/28 07:47:10;;;;;;;2.55;0.40;;;17.10;99.90;;;;;;20946990;28;20082;-83
2022/08/28 07:57:12;;;;;;;2.53;0.82;;;17.60;99.90;;;;;;20950823;28;20040;-81
2022/08/28 08:07:13;;;;;;;1.73;0.20;;;17.90;99.90;;;;;;20969871;28;20041;-84
2022/08/28 08:17:14;;;;;;;1.00;0.35;;;18.10;99.90;;;;;;20963137;28;20710;-79
2022/08/28 08:27:15;;;;;;;1.58;0.20;;;18.50;99.90;;;;;;20965775;28;20036;-79
2022/08/28 08:37:16;;;;;;;0.82;0.15;;;19.10;99.90;;;;;;20924184;28;20114;-79
2022/08/28 08:47:42;;;;;;;0.40;0.20;;;19.50;99.90;;;;;;20944295;28;20032;-79
2022/08/28 08:57:45;;;;;;;2.45;0.77;;;19.60;99.90;;;;;;20943201;28;21691;-79
2022/08/28 09:08:01;;;;;;;1.13;0.20;;;19.80;99.90;;;;;;20938069;28;20067;-79
2022/08/28 09:18:13;;;;;;;0.50;0.15;;;20.30;99.90;;;;;;20929093;28;20035;-79
2022/08/28 09:28:24;;;;;;;1.30;0.30;;;20.40;99.90;;;;;;20938579;28;20146;-79
2022/08/28 09:38:25;;;;;;;1.75;0.50;;;20.20;99.90;;;;;;20956762;28;20384;-79
2022/08/28 09:48:37;;;;;;;0.88;0.15;;;20.60;99.90;;;;;;20955709;28;20114;-79
2022/08/28 09:58:40;;;;;;;0.63;0.28;;;21.10;99.90;;;;;;20959204;28;20441;-79
2022/08/28 10:09:01;;;;;;;0.68;0.20;;;21.10;99.90;;;;;;20959686;28;20672;-79
2022/08/28 10:19:35;;;;;;;0.88;0.17;;;21.50;99.90;;;;;;20962645;28;20141;-79
2022/08/28 10:30:12;;;;;;;1.10;0.40;;;21.60;99.90;;;;;;20955046;28;20295;-79
2022/08/28 10:40:18;;;;;;;0.30;0.20;;;21.70;99.90;;;;;;20928825;28;20044;-79
2022/08/28 10:50:26;;;;;;;0.77;0.20;;;21.70;99.90;;;;;;20952571;28;20438;-78
2022/08/28 11:00:28;;;;;;;0.30;0.13;;;21.90;99.90;;;;;;20958057;28;20048;-78
2022/08/28 11:10:35;;;;;;;1.30;0.10;;;22.30;99.90;;;;;;20964478;28;20040;-78
2022/08/28 11:20:38;;;;;;;0.93;0.17;;;22.70;99.90;;;;;;20969420;28;20187;-78
2022/08/28 11:30:39;;;;;;;0.50;0.20;;;23.10;99.90;;;;;;20967487;28;20094;-78
2022/08/28 11:40:46;;;;;;;0.47;0.10;;;23.30;99.90;;;;;;20965843;28;20099;-78
2022/08/28 11:51:07;;;;;;;0.67;0.37;;;23.40;99.90;;;;;;20959599;28;20048;-77
2022/08/28 12:01:11;;;;;;;1.33;0.50;;;23.90;99.40;;;;;;20937331;28;20044;-78
2022/08/28 12:11:40;;;;;;;1.50;0.65;;;23.90;99.50;;;;;;20942301;28;20048;-79
2022/08/28 12:21:41;;;;;;;1.48;0.22;;;24.20;99.80;;;;;;20933956;28;20663;-79
2022/08/28 12:32:10;;;;;;;0.70;0.10;;;24.40;99.20;;;;;;20944351;28;20098;-78
2022/08/28 12:42:16;;;;;;;0.80;0.30;;;24.70;98.40;;;;;;20951681;28;20051;-78
2022/08/28 12:52:20;;;;;;;0.63;0.10;;;24.30;99.10;;;;;;20949689;28;20149;-79
2022/08/28 13:02:34;;;;;;;0.43;0.15;;;24.80;98.20;;;;;;20949418;28;20044;-79
2022/08/28 13:12:40;;;;;;;1.55;0.35;;;25.00;96.60;;;;;;20971686;28;20351;-79
2022/08/28 13:22:41;;;;;;;0.35;0.20;;;25.50;95.90;;;;;;20961967;28;20129;-79
2022/08/28 13:33:01;;;;;;;0.32;0.10;;;25.60;95.30;;;;;;20952497;28;20078;-79
2022/08/28 13:43:05;;;;;;;0.88;0.43;;;25.90;95.60;;;;;;20970697;28;20039;-79
2022/08/28 13:53:06;;;;;;;0.73;0.10;;;26.00;94.30;;;;;;20975687;28;20086;-79
2022/08/28 14:13:27;;;;;;;1.10;0.20;;;26.10;94.20;;;;;;20967419;28;20044;-79
2022/08/28 14:23:28;;;;;;;1.33;0.20;;;25.10;94.80;;;;;;20961276;28;20041;-78
2022/08/28 14:33:29;;;;;;;0.95;0.10;;;24.70;94.80;;;;;;20935408;28;20163;-80
2022/08/28 14:43:30;;;;;;;1.02;0.40;;;24.00;94.80;;;;;;20962474;28;20044;-81
2022/08/28 14:53:31;;;;;;;0.50;0.30;;;23.70;96.40;;;;;;20963641;28;20048;-80
2022/08/28 15:03:32;;;;;;;0.80;0.17;;;23.40;96.10;;;;;;20989371;28;20041;-80
2022/08/28 15:13:34;;;;;;;0.85;0.25;;;23.30;96.30;;;;;;20978163;28;20511;-80
2022/08/28 15:23:35;;;;;;;0.47;0.15;;;22.90;97.00;;;;;;20973646;28;20442;-80
2022/08/28 15:33:36;;;;;;;1.90;0.30;;;22.50;98.20;;;;;;20948523;28;20456;-81
2022/08/28 15:43:37;;;;;;;2.67;0.35;;;22.40;98.50;;;;;;20963000;28;20556;-82
2022/08/28 15:53:38;;;;;;;0.85;0.28;;;22.20;98.90;;;;;;20969289;28;20044;-81
2022/08/28 16:03:39;;;;;;;0.30;0.10;;;22.10;98.10;;;;;;20943410;28;20047;-81
2022/08/28 16:13:40;;;;;;;1.52;0.10;;;21.80;99.10;;;;;;20944731;28;20040;-80
2022/08/28 16:23:41;;;;;;;0.75;0.20;;;21.80;98.30;;;;;;20939481;28;20059;-79
2022/08/28 16:33:42;;;;;;;0.52;0.20;;;21.40;98.80;;;;;;20954716;28;20474;-81
2022/08/28 16:43:44;;;;;;;1.35;0.40;;;21.30;99.90;;;;;;20960787;28;20519;-80
2022/08/28 16:53:46;;;;;;;1.13;0.60;;;21.00;99.90;;;;;;20963571;28;20037;-80
2022/08/28 17:03:47;;;;;;;3.85;0.28;;;20.90;99.90;;;;;;20951258;28;20044;-80
2022/08/28 17:13:48;;;;;;;0.60;0.30;;;20.60;99.90;;;;;;20964045;28;20049;-80
2022/08/28 17:23:50;;;;;;;3.08;0.20;;;20.50;99.90;;;;;;20953662;28;20036;-81
2022/08/28 17:33:51;;;;;;;0.55;0.32;;;20.20;99.90;;;;;;20962177;28;20041;-80
2022/08/28 17:43:52;;;;;;;5.13;0.40;;;20.20;99.90;;;;;;20936284;28;20583;-80
2022/08/28 17:53:53;;;;;;;0.82;0.20;;;19.90;99.90;;;;;;20957271;28;20063;-80
2022/08/28 18:03:54;;;;;;;0.68;0.20;;;19.50;99.90;;;;;;20949052;28;20044;-78
2022/08/28 18:13:56;;;;;;;1.13;0.30;;;19.30;99.90;;;;;;20961216;28;20044;-78
2022/08/28 18:23:57;;;;;;;5.38;1.17;;;19.00;99.90;;;;;;20964344;28;20067;-79
2022/08/28 18:33:58;;;;;;;0.90;0.35;;;18.90;99.90;;;;;;20951625;28;20044;-78
2022/08/28 18:43:59;;;;;;;0.60;0.22;;;18.80;99.90;;;;;;20949728;28;20565;-79
2022/08/28 18:54:01;;;;;;;0.65;0.25;;;18.70;99.90;;;;;;20960392;28;20483;-79
2022/08/28 19:04:03;;;;;;;0.63;0.20;;;18.50;99.90;;;;;;20961970;28;20043;-79
2022/08/28 19:14:04;;;;;;;0.70;0.30;;;18.50;99.90;;;;;;20962883;28;20328;-79
2022/08/28 19:24:05;;;;;;;0.50;0.10;;;18.30;99.90;;;;;;20946483;28;20032;-79
2022/08/28 19:34:10;;;;;;;1.13;0.30;;;18.10;99.90;;;;;;20937281;28;20108;-79
2022/08/28 19:44:11;;;;;;;0.45;0.20;;;17.90;99.90;;;;;;20948289;28;20062;-79
2022/08/28 19:54:13;;;;;;;0.38;0.13;;;17.90;99.90;;;;;;20940897;28;20097;-79
2022/08/28 20:04:16;;;;;;;0.98;0.47;;;17.80;99.90;;;;;;20948149;28;20037;-79
2022/08/28 20:14:18;;;;;;;0.60;0.28;;;17.90;99.90;;;;;;20932943;28;20519;-79
2022/08/28 20:24:22;;;;;;;0.57;0.20;;;17.90;99.90;;;;;;20938401;28;21213;-79
2022/08/28 20:34:23;;;;;;;0.85;0.20;;;18.00;99.90;;;;;;20954774;28;20101;-78
2022/08/28 20:44:26;;;;;;;0.38;0.10;;;18.00;99.90;;;;;;20937409;28;20421;-79
2022/08/28 20:54:37;;;;;;;0.95;0.40;;;17.90;99.90;;;;;;20942016;28;20411;-79
2022/08/28 21:04:39;;;;;;;1.20;0.57;;;17.90;99.90;;;;;;20922446;28;20336;-79
2022/08/28 21:14:41;;;;;;;0.77;0.20;;;17.80;99.90;;;;;;20939847;28;20060;-79
2022/08/28 21:24:42;;;;;;;0.40;0.20;;;17.80;99.90;;;;;;20943472;28;20519;-79
2022/08/28 21:34:43;;;;;;;0.70;0.30;;;17.80;99.90;;;;;;20944188;28;20646;-79
2022/08/28 21:44:44;;;;;;;1.20;0.90;;;17.70;99.90;;;;;;20914740;28;20043;-79
2022/08/28 21:54:45;;;;;;;0.25;0.13;;;17.60;99.90;;;;;;20925382;28;20105;-80
2022/08/28 22:04:47;;;;;;;1.15;0.30;;;17.40;99.90;;;;;;20959346;28;20094;-79
2022/08/28 22:14:48;;;;;;;0.40;0.20;;;17.40;99.90;;;;;;20933838;28;20058;-79
2022/08/28 22:24:50;;;;;;;1.80;0.85;;;17.30;99.90;;;;;;20917229;28;20492;-79
2022/08/28 22:34:51;;;;;;;0.98;0.32;;;17.10;99.90;;;;;;20934152;28;20125;-80
2022/08/28 22:44:52;;;;;;;0.82;0.22;;;16.80;99.90;;;;;;20937138;28;20141;-80
2022/08/28 22:54:53;;;;;;;0.88;0.15;;;16.40;99.90;;;;;;20950861;28;20856;-80
2022/08/28 23:04:54;;;;;;;0.68;0.30;;;16.30;99.90;;;;;;20952428;28;20032;-79
2022/08/28 23:14:55;;;;;;;3.88;0.32;;;16.20;99.90;;;;;;20941106;28;20052;-79
2022/08/28 23:24:56;;;;;;;0.57;0.25;;;16.00;99.90;;;;;;20929466;28;20040;-79
2022/08/28 23:34:57;;;;;;;1.13;0.35;;;15.90;99.90;;;;;;20920903;28;20048;-80
2022/08/28 23:44:58;;;;;;;1.52;0.40;;;15.60;99.90;;;;;;20926693;28;20530;-79
2022/08/28 23:55:00;;;;;;;1.45;0.50;;;15.50;99.90;;;;;;20982229;28;20045;-81
